Time;durP1;ratioP1;P1;durP2;ratioP2;P2;SDS_P1;SDS_P2;PMS_P1;PMS_P2;Temp;Humidity;BMP_temperature;BMP_pressure;BME280_temperature;BME280_humidity;BME280_pressure;Samples;Min_cycle;Max_cycle;Signal;HPM_P1;HPM_P2
2024/03/06 00:01:18;;;;;;;55.25;23.17;;;;;;;;;;5064144;28;20260;-45
2024/03/06 00:03:45;;;;;;;42.50;22.13;;;;;;;;;;5064307;28;20309;-48
2024/03/06 00:06:12;;;;;;;44.33;22.40;;;;;;;;;;5064567;28;20032;-45
2024/03/06 00:08:38;;;;;;;39.08;21.90;;;;;;;;;;5064097;28;20251;-45
2024/03/06 00:11:05;;;;;;;35.63;21.55;;;;;;;;;;5063809;28;20067;-40
2024/03/06 00:13:32;;;;;;;29.58;21.45;;;;;;;;;;5063712;28;20016;-44
2024/03/06 00:15:58;;;;;;;36.28;21.83;;;;;;;;;;5064119;28;20032;-40
2024/03/06 00:18:25;;;;;;;28.95;21.83;;;;;;;;;;5063689;28;20017;-45
2024/03/06 00:20:52;;;;;;;27.77;21.83;;;;;;;;;;5064414;28;20328;-41
2024/03/06 00:23:18;;;;;;;27.92;21.25;;;;;;;;;;5063894;28;20335;-47
2024/03/06 00:25:45;;;;;;;25.17;20.60;;;;;;;;;;5064342;28;20048;-38
2024/03/06 00:28:11;;;;;;;30.52;21.25;;;;;;;;;;5063634;28;20020;-43
2024/03/06 00:30:38;;;;;;;26.10;19.55;;;;;;;;;;5064007;28;20025;-40
2024/03/06 00:33:05;;;;;;;30.35;20.98;;;;;;;;;;5063610;28;20017;-42
2024/03/06 00:35:31;;;;;;;24.60;20.40;;;;;;;;;;5063807;28;20107;-48
2024/03/06 00:38:02;;;;;;;26.67;21.65;;;;;;;;;;5067462;28;20015;-39
2024/03/06 00:40:32;;;;;;;26.13;21.77;;;;;;;;;;5067357;28;20036;-40
2024/03/06 00:42:59;;;;;;;32.10;21.52;;;;;;;;;;5067340;28;20028;-48
2024/03/06 00:45:25;;;;;;;28.88;21.00;;;;;;;;;;5066983;28;20117;-37
2024/03/06 00:47:52;;;;;;;30.65;21.30;;;;;;;;;;5067244;28;20084;-37
2024/03/06 00:50:21;;;;;;;25.67;21.20;;;;;;;;;;5067521;28;20036;-48
2024/03/06 00:52:48;;;;;;;31.63;21.58;;;;;;;;;;5067044;28;20261;-38
2024/03/06 00:55:15;;;;;;;36.95;22.48;;;;;;;;;;5067367;28;20033;-40
2024/03/06 00:57:41;;;;;;;44.85;22.73;;;;;;;;;;5066927;28;20036;-42
2024/03/06 01:00:10;;;;;;;54.42;23.20;;;;;;;;;;5067091;28;20088;-53
2024/03/06 01:02:40;;;;;;;33.53;22.80;;;;;;;;;;5067082;28;20025;-46
2024/03/06 01:05:07;;;;;;;34.17;22.73;;;;;;;;;;5067256;28;20071;-37
2024/03/06 01:07:34;;;;;;;38.33;24.60;;;;;;;;;;5066550;28;20021;-41
2024/03/06 01:10:01;;;;;;;56.13;29.25;;;;;;;;;;5066539;28;20037;-40
2024/03/06 01:12:28;;;;;;;42.78;28.60;;;;;;;;;;5066582;28;20028;-46
2024/03/06 01:14:55;;;;;;;39.97;26.55;;;;;;;;;;5066455;28;20025;-40
2024/03/06 01:17:22;;;;;;;35.85;24.58;;;;;;;;;;5066577;28;20025;-43
2024/03/06 01:19:49;;;;;;;32.25;24.67;;;;;;;;;;5066720;28;20021;-37
2024/03/06 01:22:15;;;;;;;41.45;23.98;;;;;;;;;;5066426;28;20024;-36
2024/03/06 01:24:42;;;;;;;32.53;24.08;;;;;;;;;;5066561;28;20027;-44
2024/03/06 01:27:08;;;;;;;24.50;22.00;;;;;;;;;;5066394;28;20027;-43
2024/03/06 01:29:35;;;;;;;30.73;23.70;;;;;;;;;;5066043;28;20017;-40
2024/03/06 01:32:02;;;;;;;25.48;22.77;;;;;;;;;;5065161;28;20021;-39
2024/03/06 01:34:29;;;;;;;28.40;23.08;;;;;;;;;;5066356;28;20021;-46
2024/03/06 01:36:56;;;;;;;37.20;22.52;;;;;;;;;;5066312;28;20087;-42
2024/03/06 01:39:23;;;;;;;38.92;23.25;;;;;;;;;;5066277;28;20062;-44
2024/03/06 01:41:50;;;;;;;31.10;21.90;;;;;;;;;;5066638;28;20092;-43
2024/03/06 01:44:17;;;;;;;28.73;22.30;;;;;;;;;;5065895;28;20082;-37
2024/03/06 01:46:44;;;;;;;28.70;22.10;;;;;;;;;;5065230;28;20345;-44
2024/03/06 01:49:13;;;;;;;31.00;23.48;;;;;;;;;;5065996;28;20024;-42
2024/03/06 01:51:40;;;;;;;27.17;23.10;;;;;;;;;;5066166;28;20025;-41
2024/03/06 01:54:07;;;;;;;25.40;22.05;;;;;;;;;;5065783;28;20059;-39
2024/03/06 01:56:34;;;;;;;33.28;23.13;;;;;;;;;;5066101;28;20057;-38
2024/03/06 01:59:03;;;;;;;27.02;23.52;;;;;;;;;;5065809;28;20076;-43
2024/03/06 02:01:30;;;;;;;25.30;22.52;;;;;;;;;;5066451;28;20173;-46
2024/03/06 02:03:57;;;;;;;26.33;23.00;;;;;;;;;;5065808;28;20031;-48
2024/03/06 02:06:24;;;;;;;77.82;27.05;;;;;;;;;;5066085;28;20059;-44
2024/03/06 02:08:54;;;;;;;38.53;23.13;;;;;;;;;;5061708;28;20070;-40
2024/03/06 02:11:22;;;;;;;35.95;22.52;;;;;;;;;;5063435;28;20340;-38
2024/03/06 02:13:50;;;;;;;35.75;23.08;;;;;;;;;;5065193;28;20032;-37
2024/03/06 02:16:17;;;;;;;94.80;26.90;;;;;;;;;;5065537;28;20053;-45
2024/03/06 02:18:53;;;;;;;118.07;28.80;;;;;;;;;;5060634;28;20401;-45
2024/03/06 02:21:24;;;;;;;41.88;23.65;;;;;;;;;;5053848;28;20033;-46
2024/03/06 02:23:54;;;;;;;38.10;23.48;;;;;;;;;;5047545;28;20021;-46
2024/03/06 02:26:21;;;;;;;24.20;21.65;;;;;;;;;;5056706;28;20108;-47
2024/03/06 02:28:51;;;;;;;27.98;22.60;;;;;;;;;;5048394;28;20025;-49
2024/03/06 02:31:18;;;;;;;23.25;20.85;;;;;;;;;;5045491;28;20036;-51
2024/03/06 02:33:45;;;;;;;24.60;22.20;;;;;;;;;;5045092;28;20024;-48
2024/03/06 02:36:12;;;;;;;27.92;22.50;;;;;;;;;;5045500;28;20045;-47
2024/03/06 02:38:38;;;;;;;25.67;22.92;;;;;;;;;;5044943;28;20051;-52
2024/03/06 02:41:06;;;;;;;28.00;23.45;;;;;;;;;;5045124;28;20029;-45
2024/03/06 02:43:36;;;;;;;27.70;22.45;;;;;;;;;;5049371;28;20334;-40
2024/03/06 02:46:03;;;;;;;36.95;23.42;;;;;;;;;;5061286;28;20345;-42
2024/03/06 02:48:29;;;;;;;27.83;22.65;;;;;;;;;;5064668;28;20269;-48
2024/03/06 02:50:56;;;;;;;25.05;22.05;;;;;;;;;;5064882;28;20036;-51
2024/03/06 02:53:27;;;;;;;27.77;22.50;;;;;;;;;;5064614;28;20116;-43
2024/03/06 02:55:54;;;;;;;25.13;22.55;;;;;;;;;;5058489;28;20028;-50
2024/03/06 02:58:21;;;;;;;31.13;22.25;;;;;;;;;;5046384;28;20017;-48
2024/03/06 03:00:47;;;;;;;24.83;22.08;;;;;;;;;;5044856;28;20249;-47
2024/03/06 03:03:14;;;;;;;27.92;22.70;;;;;;;;;;5055511;28;20108;-48
2024/03/06 03:05:40;;;;;;;24.98;22.38;;;;;;;;;;5044422;28;20032;-49
2024/03/06 03:08:08;;;;;;;24.27;21.83;;;;;;;;;;5044587;28;20075;-46
2024/03/06 03:10:34;;;;;;;25.20;22.50;;;;;;;;;;5044372;28;20036;-48
2024/03/06 03:13:02;;;;;;;24.15;21.85;;;;;;;;;;5044526;28;20325;-50
2024/03/06 03:15:28;;;;;;;26.33;22.90;;;;;;;;;;5050037;28;20289;-48
2024/03/06 03:17:55;;;;;;;25.17;22.42;;;;;;;;;;5053119;28;20022;-52
2024/03/06 03:20:21;;;;;;;25.33;22.65;;;;;;;;;;5057089;28;20025;-48
2024/03/06 03:22:48;;;;;;;31.40;23.08;;;;;;;;;;5058540;28;20048;-39
2024/03/06 03:25:15;;;;;;;26.45;23.05;;;;;;;;;;5055024;28;20021;-43
2024/03/06 03:27:43;;;;;;;26.23;23.45;;;;;;;;;;5052866;28;20044;-41
2024/03/06 03:30:13;;;;;;;28.42;22.77;;;;;;;;;;5044101;28;20029;-39
2024/03/06 03:32:42;;;;;;;25.92;22.50;;;;;;;;;;5043962;28;20025;-51
2024/03/06 03:35:09;;;;;;;25.65;23.05;;;;;;;;;;5044232;28;20179;-41
2024/03/06 03:37:36;;;;;;;24.88;22.38;;;;;;;;;;5044030;28;20021;-36
2024/03/06 03:40:03;;;;;;;23.45;21.20;;;;;;;;;;5043903;28;20025;-39
2024/03/06 03:42:29;;;;;;;25.67;23.27;;;;;;;;;;5043874;28;20222;-38
2024/03/06 03:44:56;;;;;;;24.45;22.17;;;;;;;;;;5043857;28;20029;-38
2024/03/06 03:47:23;;;;;;;24.73;22.35;;;;;;;;;;5043774;28;20071;-39
2024/03/06 03:49:49;;;;;;;25.63;23.23;;;;;;;;;;5043734;28;20189;-36
2024/03/06 03:52:16;;;;;;;24.92;22.45;;;;;;;;;;5052412;28;20023;-43
2024/03/06 03:54:43;;;;;;;24.73;22.52;;;;;;;;;;5045694;28;20067;-37
2024/03/06 03:57:10;;;;;;;25.67;23.13;;;;;;;;;;5043964;28;20029;-39
2024/03/06 03:59:37;;;;;;;25.25;22.70;;;;;;;;;;5043716;28;20081;-46
2024/03/06 04:02:04;;;;;;;25.02;22.65;;;;;;;;;;5043790;28;20033;-42
2024/03/06 04:04:30;;;;;;;24.73;22.48;;;;;;;;;;5043545;28;20017;-44
2024/03/06 04:06:59;;;;;;;25.13;22.92;;;;;;;;;;5048731;28;20032;-43
2024/03/06 04:09:26;;;;;;;23.95;21.77;;;;;;;;;;5049673;28;20104;-54
2024/03/06 04:11:52;;;;;;;25.23;22.92;;;;;;;;;;5048046;28;20025;-37
2024/03/06 04:14:19;;;;;;;25.70;23.40;;;;;;;;;;5047820;28;20017;-37
2024/03/06 04:16:48;;;;;;;24.33;22.13;;;;;;;;;;5048198;28;20022;-40
2024/03/06 04:19:15;;;;;;;23.85;21.80;;;;;;;;;;5047589;28;20041;-34
2024/03/06 04:21:45;;;;;;;25.38;23.13;;;;;;;;;;5048078;28;20213;-38
2024/03/06 04:24:11;;;;;;;24.75;22.50;;;;;;;;;;5047605;28;20026;-39
2024/03/06 04:26:38;;;;;;;24.67;22.58;;;;;;;;;;5048011;28;20173;-39
2024/03/06 04:29:04;;;;;;;24.42;21.88;;;;;;;;;;5047506;28;20033;-48
2024/03/06 04:31:31;;;;;;;24.95;22.67;;;;;;;;;;5047781;28;20022;-37
2024/03/06 04:33:58;;;;;;;25.40;23.15;;;;;;;;;;5047278;28;20026;-41
2024/03/06 04:36:24;;;;;;;24.13;21.83;;;;;;;;;;5051861;28;20088;-35
2024/03/06 04:38:51;;;;;;;23.83;21.83;;;;;;;;;;5065381;28;20017;-34
2024/03/06 04:41:19;;;;;;;25.02;22.75;;;;;;;;;;5067414;28;20032;-43
2024/03/06 04:43:46;;;;;;;24.20;21.90;;;;;;;;;;5067127;28;20025;-48
2024/03/06 04:46:15;;;;;;;24.33;22.13;;;;;;;;;;5066988;28;20071;-49
2024/03/06 04:48:42;;;;;;;24.88;22.40;;;;;;;;;;5067018;28;20080;-54
2024/03/06 04:51:09;;;;;;;25.10;22.60;;;;;;;;;;5067421;28;20029;-37
2024/03/06 04:53:36;;;;;;;24.63;22.17;;;;;;;;;;5063543;28;20062;-37
2024/03/06 04:56:03;;;;;;;24.38;21.77;;;;;;;;;;5056070;28;20021;-39
2024/03/06 04:58:30;;;;;;;31.55;23.00;;;;;;;;;;5056136;28;20013;-51
2024/03/06 05:00:56;;;;;;;31.00;22.63;;;;;;;;;;5060301;28;20025;-37
2024/03/06 05:03:23;;;;;;;25.05;22.45;;;;;;;;;;5052400;28;20265;-38
2024/03/06 05:05:49;;;;;;;25.65;22.23;;;;;;;;;;5060586;28;20182;-35
2024/03/06 05:08:16;;;;;;;25.02;22.58;;;;;;;;;;5055829;28;20021;-37
2024/03/06 05:10:42;;;;;;;25.95;23.38;;;;;;;;;;5046753;28;20027;-35
2024/03/06 05:13:09;;;;;;;26.15;23.42;;;;;;;;;;5046815;28;20028;-37
2024/03/06 05:15:36;;;;;;;24.25;22.05;;;;;;;;;;5046927;28;20309;-38
2024/03/06 05:18:02;;;;;;;25.52;22.83;;;;;;;;;;5046468;28;20025;-39
2024/03/06 05:20:30;;;;;;;24.70;22.35;;;;;;;;;;5046604;28;20021;-36
2024/03/06 05:22:57;;;;;;;24.70;22.30;;;;;;;;;;5045881;28;20052;-35
2024/03/06 05:25:24;;;;;;;24.80;22.52;;;;;;;;;;5046458;28;20040;-34
2024/03/06 05:27:51;;;;;;;24.30;22.00;;;;;;;;;;5046751;28;20326;-41
2024/03/06 05:30:18;;;;;;;25.45;22.98;;;;;;;;;;5046406;28;20027;-40
2024/03/06 05:32:46;;;;;;;25.88;23.27;;;;;;;;;;5046174;28;20017;-36
2024/03/06 05:35:13;;;;;;;27.23;22.20;;;;;;;;;;5046320;28;20049;-43
2024/03/06 05:37:40;;;;;;;26.85;23.58;;;;;;;;;;5046342;28;20306;-42
2024/03/06 05:40:07;;;;;;;25.80;23.10;;;;;;;;;;5055125;28;20086;-37
2024/03/06 05:42:34;;;;;;;25.17;22.80;;;;;;;;;;5065977;28;20025;-38
2024/03/06 05:45:04;;;;;;;25.75;23.25;;;;;;;;;;5059794;28;20074;-45
2024/03/06 05:47:33;;;;;;;25.35;22.95;;;;;;;;;;5050882;28;20212;-37
2024/03/06 05:50:04;;;;;;;28.58;24.00;;;;;;;;;;5044302;28;20032;-39
2024/03/06 05:52:36;;;;;;;25.10;22.90;;;;;;;;;;5044306;28;20521;-39
2024/03/06 05:55:06;;;;;;;24.45;22.25;;;;;;;;;;5044276;28;20029;-43
2024/03/06 05:57:33;;;;;;;25.10;22.70;;;;;;;;;;5054351;28;20028;-41
2024/03/06 05:59:59;;;;;;;25.00;22.75;;;;;;;;;;5056855;28;20202;-39
2024/03/06 06:02:27;;;;;;;25.20;22.77;;;;;;;;;;5056361;28;20078;-47
2024/03/06 06:04:53;;;;;;;25.08;22.83;;;;;;;;;;5055720;28;20044;-51
2024/03/06 06:07:20;;;;;;;25.63;23.23;;;;;;;;;;5054253;28;20048;-49
2024/03/06 06:09:47;;;;;;;26.15;23.85;;;;;;;;;;5055684;28;20329;-41
2024/03/06 06:12:13;;;;;;;26.13;23.48;;;;;;;;;;5055629;28;20064;-46
2024/03/06 06:14:40;;;;;;;25.92;23.42;;;;;;;;;;5054093;28;20171;-49
2024/03/06 06:17:07;;;;;;;25.25;22.95;;;;;;;;;;5055627;28;20024;-49
2024/03/06 06:19:33;;;;;;;25.75;23.45;;;;;;;;;;5055324;28;20017;-42
2024/03/06 06:22:00;;;;;;;25.30;23.00;;;;;;;;;;5054120;28;20033;-45
2024/03/06 06:24:27;;;;;;;24.85;22.55;;;;;;;;;;5055586;28;20066;-38
2024/03/06 06:26:53;;;;;;;24.88;22.67;;;;;;;;;;5055199;28;20067;-46
2024/03/06 06:29:20;;;;;;;25.05;22.85;;;;;;;;;;5060002;28;20185;-45
2024/03/06 06:31:47;;;;;;;25.90;23.17;;;;;;;;;;5056886;28;20048;-43
2024/03/06 06:34:13;;;;;;;25.92;23.48;;;;;;;;;;5054274;28;20311;-46
2024/03/06 06:36:45;;;;;;;25.67;23.08;;;;;;;;;;5056155;28;20085;-50
2024/03/06 06:39:12;;;;;;;25.45;23.08;;;;;;;;;;5054680;28;20112;-43
2024/03/06 06:41:38;;;;;;;24.67;22.58;;;;;;;;;;5054143;28;20246;-40
2024/03/06 06:44:05;;;;;;;24.63;22.42;;;;;;;;;;5055583;28;20020;-38
2024/03/06 06:46:31;;;;;;;24.95;22.63;;;;;;;;;;5054336;28;20052;-36
2024/03/06 06:48:58;;;;;;;25.63;23.30;;;;;;;;;;5053819;28;20029;-40
2024/03/06 06:51:25;;;;;;;26.73;24.02;;;;;;;;;;5055683;28;20240;-47
2024/03/06 06:53:51;;;;;;;25.58;23.02;;;;;;;;;;5054436;28;20040;-43
2024/03/06 06:56:18;;;;;;;26.27;23.73;;;;;;;;;;5053878;28;20021;-48
2024/03/06 06:58:45;;;;;;;25.50;22.90;;;;;;;;;;5055376;28;20040;-47
2024/03/06 07:01:12;;;;;;;25.60;23.20;;;;;;;;;;5054605;28;20084;-41
2024/03/06 07:03:38;;;;;;;25.25;22.95;;;;;;;;;;5053447;28;20021;-51
2024/03/06 07:06:06;;;;;;;25.88;23.52;;;;;;;;;;5055204;28;20017;-49
2024/03/06 07:08:32;;;;;;;26.35;23.55;;;;;;;;;;5053988;28;20209;-49
2024/03/06 07:10:59;;;;;;;26.20;23.60;;;;;;;;;;5053417;28;20025;-41
2024/03/06 07:13:26;;;;;;;27.05;24.40;;;;;;;;;;5055779;28;20024;-40
2024/03/06 07:15:52;;;;;;;25.83;23.40;;;;;;;;;;5053983;28;20094;-49
2024/03/06 07:18:19;;;;;;;25.75;23.55;;;;;;;;;;5054898;28;20328;-37
2024/03/06 07:20:47;;;;;;;25.92;23.65;;;;;;;;;;5053338;28;20025;-39
2024/03/06 07:23:14;;;;;;;25.50;23.25;;;;;;;;;;5060271;28;20025;-39
2024/03/06 07:25:40;;;;;;;26.55;24.08;;;;;;;;;;5055896;28;20036;-38
2024/03/06 07:28:07;;;;;;;28.02;25.05;;;;;;;;;;5054699;28;20016;-43
2024/03/06 07:30:34;;;;;;;25.25;23.05;;;;;;;;;;5053999;28;20021;-38
2024/03/06 07:33:01;;;;;;;26.02;23.73;;;;;;;;;;5052547;28;20374;-41
2024/03/06 07:35:28;;;;;;;26.13;23.65;;;;;;;;;;5054467;28;20118;-44
2024/03/06 07:37:54;;;;;;;26.30;23.75;;;;;;;;;;5053824;28;20022;-42
2024/03/06 07:40:21;;;;;;;25.63;23.25;;;;;;;;;;5052623;28;20044;-42
2024/03/06 07:42:48;;;;;;;24.42;22.25;;;;;;;;;;5054321;28;20086;-46
2024/03/06 07:45:15;;;;;;;25.38;23.10;;;;;;;;;;5053370;28;20053;-51
2024/03/06 07:47:42;;;;;;;25.77;23.48;;;;;;;;;;5052493;28;20035;-38
2024/03/06 07:50:10;;;;;;;24.65;22.42;;;;;;;;;;5053960;28;20219;-37
2024/03/06 07:52:37;;;;;;;25.75;23.42;;;;;;;;;;5054048;28;20022;-38
2024/03/06 07:55:04;;;;;;;24.73;22.42;;;;;;;;;;5055804;28;20049;-53
2024/03/06 07:57:30;;;;;;;26.00;23.52;;;;;;;;;;5052869;28;20081;-53
2024/03/06 07:59:57;;;;;;;25.95;23.58;;;;;;;;;;5043758;28;20032;-50
2024/03/06 08:02:24;;;;;;;26.42;23.45;;;;;;;;;;5044027;28;20044;-46
2024/03/06 08:04:50;;;;;;;26.33;23.83;;;;;;;;;;5043717;28;20071;-46
2024/03/06 08:07:17;;;;;;;25.98;23.33;;;;;;;;;;5044004;28;20041;-42
2024/03/06 08:09:44;;;;;;;26.77;24.25;;;;;;;;;;5043474;28;20022;-44
2024/03/06 08:12:10;;;;;;;25.90;23.50;;;;;;;;;;5044033;28;20021;-46
2024/03/06 08:14:37;;;;;;;24.65;22.48;;;;;;;;;;5043681;28;20010;-42
2024/03/06 08:17:04;;;;;;;26.65;24.17;;;;;;;;;;5043467;28;20230;-45
2024/03/06 08:19:30;;;;;;;26.40;24.05;;;;;;;;;;5043524;28;20372;-49
2024/03/06 08:21:57;;;;;;;26.50;24.00;;;;;;;;;;5043546;28;20036;-45
2024/03/06 08:24:24;;;;;;;30.95;24.35;;;;;;;;;;5043169;28;20025;-44
2024/03/06 08:26:50;;;;;;;27.13;23.80;;;;;;;;;;5044266;28;20041;-49
2024/03/06 08:29:17;;;;;;;28.98;24.50;;;;;;;;;;5052093;28;20272;-50
2024/03/06 08:31:43;;;;;;;26.85;24.08;;;;;;;;;;5063658;28;20086;-50
2024/03/06 08:34:10;;;;;;;26.88;24.35;;;;;;;;;;5063537;28;20029;-48
2024/03/06 08:36:37;;;;;;;27.15;24.85;;;;;;;;;;5063262;28;20020;-45
2024/03/06 08:39:05;;;;;;;26.63;24.23;;;;;;;;;;5063422;28;20313;-43
2024/03/06 08:41:31;;;;;;;26.45;24.02;;;;;;;;;;5063678;28;20196;-45
2024/03/06 08:43:58;;;;;;;26.27;23.13;;;;;;;;;;5063298;28;20104;-46
2024/03/06 08:46:25;;;;;;;26.17;23.75;;;;;;;;;;5062981;28;20297;-43
2024/03/06 08:48:52;;;;;;;26.00;23.60;;;;;;;;;;5063292;28;20039;-43
2024/03/06 08:51:18;;;;;;;27.33;24.98;;;;;;;;;;5063673;28;20025;-47
2024/03/06 08:53:45;;;;;;;26.65;24.13;;;;;;;;;;5063149;28;20017;-41
2024/03/06 08:56:11;;;;;;;27.13;24.73;;;;;;;;;;5063519;28;20020;-44
2024/03/06 08:58:38;;;;;;;25.88;23.67;;;;;;;;;;5066473;28;20040;-48
2024/03/06 09:01:05;;;;;;;26.65;23.88;;;;;;;;;;5067145;28;20032;-49
2024/03/06 09:03:31;;;;;;;26.23;23.92;;;;;;;;;;5066769;28;20039;-48
2024/03/06 09:05:59;;;;;;;25.98;23.55;;;;;;;;;;5067065;28;20079;-43
2024/03/06 09:08:26;;;;;;;26.75;24.17;;;;;;;;;;5066818;28;20052;-49
2024/03/06 09:10:53;;;;;;;27.02;24.63;;;;;;;;;;5066882;28;20029;-47
2024/03/06 09:13:19;;;;;;;28.25;24.73;;;;;;;;;;5066841;28;20017;-48
2024/03/06 09:15:46;;;;;;;26.98;24.30;;;;;;;;;;5066837;28;20226;-54
2024/03/06 09:18:12;;;;;;;26.65;24.15;;;;;;;;;;5066838;28;20300;-46
2024/03/06 09:20:39;;;;;;;27.80;25.05;;;;;;;;;;5066844;28;20035;-46
2024/03/06 09:23:05;;;;;;;26.23;23.83;;;;;;;;;;5066977;28;20024;-41
2024/03/06 09:25:32;;;;;;;27.42;24.70;;;;;;;;;;5066794;28;20048;-36
2024/03/06 09:28:00;;;;;;;28.40;24.77;;;;;;;;;;5066361;28;20084;-42
2024/03/06 09:30:28;;;;;;;25.80;23.50;;;;;;;;;;5066885;28;20025;-39
2024/03/06 09:32:54;;;;;;;25.15;22.65;;;;;;;;;;5066699;28;20213;-39
2024/03/06 09:35:21;;;;;;;26.45;23.75;;;;;;;;;;5066787;28;20017;-34
2024/03/06 09:37:48;;;;;;;25.80;23.15;;;;;;;;;;5066187;28;20017;-37
2024/03/06 09:40:24;;;;;;;26.05;23.42;;;;;;;;;;5066349;28;20024;-36
2024/03/06 09:42:51;;;;;;;26.48;23.85;;;;;;;;;;5066620;28;20032;-36
2024/03/06 09:45:19;;;;;;;26.60;23.83;;;;;;;;;;5066097;28;20343;-35
2024/03/06 09:47:48;;;;;;;25.67;23.27;;;;;;;;;;5066125;28;20041;-47
2024/03/06 09:50:22;;;;;;;27.10;23.63;;;;;;;;;;5066161;28;20303;-45
2024/03/06 09:52:52;;;;;;;25.90;23.23;;;;;;;;;;5065839;28;20025;-45
2024/03/06 09:55:19;;;;;;;26.65;23.73;;;;;;;;;;5066073;28;20027;-46
2024/03/06 09:57:45;;;;;;;26.50;23.85;;;;;;;;;;5065982;28;20057;-39
2024/03/06 10:00:12;;;;;;;26.77;23.85;;;;;;;;;;5065879;28;20066;-39
2024/03/06 10:02:39;;;;;;;26.92;24.30;;;;;;;;;;5065936;28;20025;-44
2024/03/06 10:05:06;;;;;;;28.63;24.38;;;;;;;;;;5065828;28;20024;-38
2024/03/06 10:07:33;;;;;;;28.17;24.88;;;;;;;;;;5065192;28;20033;-40
2024/03/06 10:10:00;;;;;;;26.98;24.25;;;;;;;;;;5066181;28;20020;-36
2024/03/06 10:12:28;;;;;;;31.85;24.02;;;;;;;;;;5065569;28;20037;-36
2024/03/06 10:14:56;;;;;;;29.60;25.13;;;;;;;;;;5065359;28;20043;-38
2024/03/06 10:17:23;;;;;;;32.75;24.67;;;;;;;;;;5066058;28;20198;-38
2024/03/06 10:19:53;;;;;;;31.77;24.65;;;;;;;;;;5065509;28;20183;-44
2024/03/06 10:22:20;;;;;;;31.20;23.58;;;;;;;;;;5065505;28;20032;-36
2024/03/06 10:24:47;;;;;;;33.75;23.27;;;;;;;;;;5065428;28;20051;-40
2024/03/06 10:27:21;;;;;;;32.35;24.20;;;;;;;;;;5065351;28;20093;-36
2024/03/06 10:30:01;;;;;;;35.75;25.60;;;;;;;;;;5065175;28;20020;-37
2024/03/06 10:32:27;;;;;;;37.50;24.40;;;;;;;;;;5065384;28;20288;-42
2024/03/06 10:34:54;;;;;;;31.15;23.50;;;;;;;;;;5065140;28;20020;-39
2024/03/06 10:37:21;;;;;;;33.72;25.33;;;;;;;;;;5065239;28;20021;-44
2024/03/06 10:39:50;;;;;;;38.47;24.67;;;;;;;;;;5065085;28;20043;-38
2024/03/06 10:42:17;;;;;;;43.92;25.08;;;;;;;;;;5064944;28;20029;-36
2024/03/06 10:44:49;;;;;;;52.72;25.50;;;;;;;;;;5065276;28;20079;-40
2024/03/06 10:47:15;;;;;;;;;;;;;;;;;;5065427;28;20037;-38
2024/03/06 10:49:42;;;;;;;45.85;25.60;;;;;;;;;;5065077;28;19904;-39
2024/03/06 10:52:10;;;;;;;85.78;27.52;;;;;;;;;;5064896;28;20037;-38
2024/03/06 10:54:38;;;;;;;66.30;25.50;;;;;;;;;;5064798;28;20044;-33
2024/03/06 10:57:05;;;;;;;62.55;25.52;;;;;;;;;;5064702;28;20025;-35
2024/03/06 10:59:32;;;;;;;50.95;25.48;;;;;;;;;;5064771;28;20019;-44
2024/03/06 11:02:02;;;;;;;59.60;26.20;;;;;;;;;;5064791;28;20032;-36
2024/03/06 11:04:31;;;;;;;51.00;24.38;;;;;;;;;;5064850;28;20309;-46
2024/03/06 11:06:59;;;;;;;44.08;23.17;;;;;;;;;;5064835;28;20051;-40
2024/03/06 11:09:26;;;;;;;46.28;24.77;;;;;;;;;;5064386;28;20028;-45
2024/03/06 11:11:54;;;;;;;46.75;23.75;;;;;;;;;;5064801;28;20097;-42
2024/03/06 11:14:24;;;;;;;55.75;26.08;;;;;;;;;;5064296;28;20217;-43
2024/03/06 11:16:59;;;;;;;65.28;26.40;;;;;;;;;;5064742;28;20058;-50
2024/03/06 11:19:25;;;;;;;57.40;26.52;;;;;;;;;;5063627;28;20025;-48
2024/03/06 11:21:52;;;;;;;57.47;26.48;;;;;;;;;;5064722;28;20025;-48
2024/03/06 11:24:19;;;;;;;70.40;27.83;;;;;;;;;;5064168;28;20032;-45
2024/03/06 11:27:00;;;;;;;85.78;28.67;;;;;;;;;;5064764;28;20020;-39
2024/03/06 11:29:31;;;;;;;69.18;27.55;;;;;;;;;;5064049;28;20021;-41
2024/03/06 11:32:02;;;;;;;104.10;30.10;;;;;;;;;;5064506;28;20033;-40
2024/03/06 11:34:30;;;;;;;73.28;28.45;;;;;;;;;;5064008;28;20013;-42
2024/03/06 11:37:00;;;;;;;69.03;28.35;;;;;;;;;;5063959;28;20063;-41
2024/03/06 11:39:30;;;;;;;66.07;27.45;;;;;;;;;;5064003;28;20040;-48
2024/03/06 11:41:57;;;;;;;70.20;27.20;;;;;;;;;;5063897;28;20099;-54
2024/03/06 11:44:24;;;;;;;63.67;27.73;;;;;;;;;;5063813;28;20021;-48
2024/03/06 11:47:00;;;;;;;61.85;28.40;;;;;;;;;;5063889;28;20083;-41
2024/03/06 11:49:33;;;;;;;49.13;25.83;;;;;;;;;;5063620;28;20025;-46
2024/03/06 11:52:04;;;;;;;47.20;25.65;;;;;;;;;;5063772;28;20021;-42
2024/03/06 11:54:31;;;;;;;56.13;25.52;;;;;;;;;;5063596;28;20336;-38
2024/03/06 11:56:59;;;;;;;69.65;25.65;;;;;;;;;;5063745;28;20021;-48
2024/03/06 11:59:30;;;;;;;69.53;25.65;;;;;;;;;;5063819;28;20213;-36
2024/03/06 12:01:58;;;;;;;62.63;25.85;;;;;;;;;;5063778;28;20029;-50
2024/03/06 12:04:25;;;;;;;65.78;26.52;;;;;;;;;;5063584;28;20021;-41
2024/03/06 12:06:52;;;;;;;56.65;26.60;;;;;;;;;;5064497;28;20088;-39
2024/03/06 12:09:18;;;;;;;53.85;26.05;;;;;;;;;;5063656;28;20025;-38
2024/03/06 12:11:45;;;;;;;49.90;26.42;;;;;;;;;;5064063;28;20024;-45
2024/03/06 12:14:22;;;;;;;57.85;27.58;;;;;;;;;;5063622;28;20017;-36
2024/03/06 12:16:58;;;;;;;48.00;26.55;;;;;;;;;;5063973;28;20052;-42
2024/03/06 12:19:28;;;;;;;67.35;28.13;;;;;;;;;;5054638;28;20049;-42
2024/03/06 12:21:55;;;;;;;54.05;26.80;;;;;;;;;;5053152;28;20032;-44
2024/03/06 12:24:21;;;;;;;48.72;25.70;;;;;;;;;;5043573;28;20080;-38
2024/03/06 12:26:58;;;;;;;53.88;26.23;;;;;;;;;;5044093;28;20068;-38
2024/03/06 12:29:29;;;;;;;55.35;26.35;;;;;;;;;;5043537;28;20345;-47
2024/03/06 12:31:57;;;;;;;44.72;25.33;;;;;;;;;;5046057;28;20036;-44
2024/03/06 12:34:23;;;;;;;57.65;25.40;;;;;;;;;;5047768;28;20032;-45
2024/03/06 12:36:50;;;;;;;87.65;27.02;;;;;;;;;;5047316;28;20025;-44
2024/03/06 12:39:23;;;;;;;67.90;26.80;;;;;;;;;;5047732;28;20085;-45
2024/03/06 12:41:50;;;;;;;104.72;29.02;;;;;;;;;;5047839;28;20053;-43
2024/03/06 12:44:17;;;;;;;72.53;26.67;;;;;;;;;;5047331;28;20029;-50
2024/03/06 12:46:44;;;;;;;49.95;26.38;;;;;;;;;;5047288;28;20053;-41
2024/03/06 12:49:11;;;;;;;53.30;25.98;;;;;;;;;;5047326;28;20348;-43
2024/03/06 12:51:38;;;;;;;52.95;26.10;;;;;;;;;;5047445;28;20037;-38
2024/03/06 12:54:05;;;;;;;70.82;27.65;;;;;;;;;;5047289;28;20018;-36
2024/03/06 12:56:32;;;;;;;79.10;29.23;;;;;;;;;;5046079;28;20041;-36
2024/03/06 12:58:59;;;;;;;69.00;27.38;;;;;;;;;;5047228;28;20183;-39
2024/03/06 13:01:26;;;;;;;59.22;26.88;;;;;;;;;;5047542;28;20029;-38
2024/03/06 13:03:52;;;;;;;48.42;26.73;;;;;;;;;;5046988;28;20036;-42
2024/03/06 13:06:19;;;;;;;54.88;27.35;;;;;;;;;;5047173;28;20033;-37
2024/03/06 13:08:47;;;;;;;84.60;28.10;;;;;;;;;;5046858;28;20032;-40
2024/03/06 13:11:13;;;;;;;64.53;26.33;;;;;;;;;;5047069;28;20314;-41
2024/03/06 13:13:40;;;;;;;58.58;26.63;;;;;;;;;;5046674;28;20032;-37
2024/03/06 13:16:07;;;;;;;46.95;26.23;;;;;;;;;;5047446;28;20017;-40
2024/03/06 13:18:33;;;;;;;63.63;27.48;;;;;;;;;;5046750;28;20102;-43
2024/03/06 13:21:01;;;;;;;61.80;25.90;;;;;;;;;;5046565;28;20394;-41
2024/03/06 13:23:28;;;;;;;49.40;25.23;;;;;;;;;;5046689;28;20029;-39
2024/03/06 13:25:54;;;;;;;59.28;25.98;;;;;;;;;;5047132;28;20033;-37
2024/03/06 13:28:21;;;;;;;53.42;24.98;;;;;;;;;;5046518;28;20013;-37
2024/03/06 13:30:48;;;;;;;49.08;25.00;;;;;;;;;;5046655;28;20033;-37
2024/03/06 13:33:14;;;;;;;49.80;24.92;;;;;;;;;;5046559;28;20026;-37
2024/03/06 13:35:42;;;;;;;41.50;25.67;;;;;;;;;;5046590;28;20022;-39
2024/03/06 13:38:09;;;;;;;54.45;25.00;;;;;;;;;;5046457;28;20226;-37
2024/03/06 13:40:35;;;;;;;43.28;25.70;;;;;;;;;;5046315;28;20036;-37
2024/03/06 13:43:02;;;;;;;50.00;26.40;;;;;;;;;;5045541;28;20326;-38
2024/03/06 13:45:28;;;;;;;57.72;27.08;;;;;;;;;;5045950;28;20062;-43
2024/03/06 13:47:55;;;;;;;62.03;26.75;;;;;;;;;;5046189;28;20029;-37
2024/03/06 13:50:23;;;;;;;50.97;25.98;;;;;;;;;;5046392;28;20033;-43
2024/03/06 13:52:50;;;;;;;54.92;25.90;;;;;;;;;;5045915;28;20024;-42
2024/03/06 13:55:17;;;;;;;46.60;25.48;;;;;;;;;;5046329;28;20206;-41
2024/03/06 13:57:44;;;;;;;43.05;24.65;;;;;;;;;;5045968;28;20017;-40
2024/03/06 14:00:22;;;;;;;48.13;25.55;;;;;;;;;;5054186;28;20035;-41
2024/03/06 14:02:48;;;;;;;40.40;24.77;;;;;;;;;;5066096;28;20025;-39
2024/03/06 14:05:15;;;;;;;41.35;25.25;;;;;;;;;;5065792;28;20208;-40
2024/03/06 14:07:42;;;;;;;36.55;24.88;;;;;;;;;;5065804;28;20027;-39
2024/03/06 14:10:10;;;;;;;39.10;24.92;;;;;;;;;;5065749;28;20030;-38
2024/03/06 14:12:37;;;;;;;46.25;24.70;;;;;;;;;;5065468;28;20024;-37
2024/03/06 14:15:04;;;;;;;45.45;24.15;;;;;;;;;;5065701;28;20036;-38
2024/03/06 14:17:31;;;;;;;52.63;26.42;;;;;;;;;;5065563;28;20367;-36